sensor_id;sensor_type;location;lat;lon;timestamp;P1;durP1;ratioP1;P2;durP2;ratioP2
81834;SDS011;71272;52.166;4.498;2024-02-16T00:00:59;5.57;;;3.47;;
81834;SDS011;71272;52.166;4.498;2024-02-16T00:03:25;7.55;;;3.13;;
81834;SDS011;71272;52.166;4.498;2024-02-16T00:05:50;7.38;;;3.17;;
81834;SDS011;71272;52.166;4.498;2024-02-16T00:08:17;8.35;;;3.38;;
81834;SDS011;71272;52.166;4.498;2024-02-16T00:10:42;6.50;;;3.33;;
81834;SDS011;71272;52.166;4.498;2024-02-16T00:13:07;6.83;;;3.10;;
81834;SDS011;71272;52.166;4.498;2024-02-16T00:15:32;8.83;;;3.20;;
81834;SDS011;71272;52.166;4.498;2024-02-16T00:17:58;5.80;;;2.80;;
81834;SDS011;71272;52.166;4.498;2024-02-16T00:20:23;5.45;;;2.95;;
81834;SDS011;71272;52.166;4.498;2024-02-16T00:22:49;6.50;;;3.15;;
81834;SDS011;71272;52.166;4.498;2024-02-16T00:25:14;7.63;;;3.43;;
81834;SDS011;71272;52.166;4.498;2024-02-16T00:27:40;7.90;;;2.90;;
81834;SDS011;71272;52.166;4.498;2024-02-16T00:30:06;7.05;;;2.72;;
81834;SDS011;71272;52.166;4.498;2024-02-16T00:32:31;9.95;;;3.33;;
81834;SDS011;71272;52.166;4.498;2024-02-16T00:34:57;7.60;;;3.20;;
81834;SDS011;71272;52.166;4.498;2024-02-16T00:37:22;5.90;;;3.03;;
81834;SDS011;71272;52.166;4.498;2024-02-16T00:39:47;8.43;;;3.43;;
81834;SDS011;71272;52.166;4.498;2024-02-16T00:42:13;9.87;;;3.40;;
81834;SDS011;71272;52.166;4.498;2024-02-16T00:44:38;6.97;;;2.93;;
81834;SDS011;71272;52.166;4.498;2024-02-16T00:47:04;7.20;;;3.42;;
81834;SDS011;71272;52.166;4.498;2024-02-16T00:49:31;6.43;;;3.40;;
81834;SDS011;71272;52.166;4.498;2024-02-16T00:51:56;5.65;;;3.22;;
81834;SDS011;71272;52.166;4.498;2024-02-16T00:54:21;5.27;;;3.43;;
81834;SDS011;71272;52.166;4.498;2024-02-16T00:56:46;5.87;;;3.17;;
81834;SDS011;71272;52.166;4.498;2024-02-16T00:59:12;9.40;;;3.00;;
81834;SDS011;71272;52.166;4.498;2024-02-16T01:01:37;6.13;;;3.30;;
81834;SDS011;71272;52.166;4.498;2024-02-16T01:04:02;6.37;;;3.07;;
81834;SDS011;71272;52.166;4.498;2024-02-16T01:06:28;7.07;;;3.47;;
81834;SDS011;71272;52.166;4.498;2024-02-16T01:08:53;5.27;;;2.83;;
81834;SDS011;71272;52.166;4.498;2024-02-16T01:11:18;8.03;;;3.20;;
81834;SDS011;71272;52.166;4.498;2024-02-16T01:13:45;9.85;;;3.40;;
81834;SDS011;71272;52.166;4.498;2024-02-16T01:16:10;7.53;;;3.30;;
81834;SDS011;71272;52.166;4.498;2024-02-16T01:18:35;8.00;;;3.33;;
81834;SDS011;71272;52.166;4.498;2024-02-16T01:21:02;5.32;;;2.55;;
81834;SDS011;71272;52.166;4.498;2024-02-16T01:23:28;6.65;;;3.20;;
81834;SDS011;71272;52.166;4.498;2024-02-16T01:25:53;6.43;;;3.20;;
81834;SDS011;71272;52.166;4.498;2024-02-16T01:28:19;6.77;;;3.30;;
81834;SDS011;71272;52.166;4.498;2024-02-16T01:30:44;7.23;;;3.40;;
81834;SDS011;71272;52.166;4.498;2024-02-16T01:33:09;7.78;;;3.05;;
81834;SDS011;71272;52.166;4.498;2024-02-16T01:35:35;8.57;;;3.50;;
81834;SDS011;71272;52.166;4.498;2024-02-16T01:38:00;7.63;;;3.38;;
81834;SDS011;71272;52.166;4.498;2024-02-16T01:40:26;7.88;;;3.22;;
81834;SDS011;71272;52.166;4.498;2024-02-16T01:42:52;6.77;;;3.43;;
81834;SDS011;71272;52.166;4.498;2024-02-16T01:45:20;7.43;;;3.03;;
81834;SDS011;71272;52.166;4.498;2024-02-16T01:47:45;8.45;;;3.63;;
81834;SDS011;71272;52.166;4.498;2024-02-16T01:50:12;8.65;;;3.25;;
81834;SDS011;71272;52.166;4.498;2024-02-16T01:52:39;6.55;;;3.55;;
81834;SDS011;71272;52.166;4.498;2024-02-16T01:55:04;7.70;;;3.53;;
81834;SDS011;71272;52.166;4.498;2024-02-16T01:57:30;13.05;;;3.78;;
81834;SDS011;71272;52.166;4.498;2024-02-16T01:59:56;5.88;;;3.00;;
81834;SDS011;71272;52.166;4.498;2024-02-16T02:02:21;8.97;;;3.57;;
81834;SDS011;71272;52.166;4.498;2024-02-16T02:04:46;9.10;;;3.73;;
81834;SDS011;71272;52.166;4.498;2024-02-16T02:07:14;11.20;;;3.97;;
81834;SDS011;71272;52.166;4.498;2024-02-16T02:09:40;9.13;;;3.78;;
81834;SDS011;71272;52.166;4.498;2024-02-16T02:12:05;8.77;;;3.35;;
81834;SDS011;71272;52.166;4.498;2024-02-16T02:14:30;6.20;;;3.63;;
81834;SDS011;71272;52.166;4.498;2024-02-16T02:16:55;8.90;;;3.67;;
81834;SDS011;71272;52.166;4.498;2024-02-16T02:19:21;8.97;;;4.30;;
81834;SDS011;71272;52.166;4.498;2024-02-16T02:21:46;7.40;;;3.53;;
81834;SDS011;71272;52.166;4.498;2024-02-16T02:24:11;8.60;;;4.17;;
81834;SDS011;71272;52.166;4.498;2024-02-16T02:26:37;7.15;;;3.85;;
81834;SDS011;71272;52.166;4.498;2024-02-16T02:29:02;7.82;;;3.78;;
81834;SDS011;71272;52.166;4.498;2024-02-16T02:31:27;7.47;;;3.67;;
81834;SDS011;71272;52.166;4.498;2024-02-16T02:33:53;6.60;;;3.95;;
81834;SDS011;71272;52.166;4.498;2024-02-16T02:36:18;6.67;;;3.67;;
81834;SDS011;71272;52.166;4.498;2024-02-16T02:38:43;6.77;;;3.70;;
81834;SDS011;71272;52.166;4.498;2024-02-16T02:41:09;8.15;;;4.50;;
81834;SDS011;71272;52.166;4.498;2024-02-16T02:43:34;11.30;;;4.03;;
81834;SDS011;71272;52.166;4.498;2024-02-16T02:45:59;6.53;;;3.97;;
81834;SDS011;71272;52.166;4.498;2024-02-16T02:48:25;7.67;;;3.43;;
81834;SDS011;71272;52.166;4.498;2024-02-16T02:50:50;9.50;;;4.50;;
81834;SDS011;71272;52.166;4.498;2024-02-16T02:53:15;6.83;;;3.33;;
81834;SDS011;71272;52.166;4.498;2024-02-16T02:55:40;8.03;;;3.83;;
81834;SDS011;71272;52.166;4.498;2024-02-16T02:58:05;7.60;;;4.43;;
81834;SDS011;71272;52.166;4.498;2024-02-16T03:00:30;7.83;;;3.73;;
81834;SDS011;71272;52.166;4.498;2024-02-16T03:02:56;6.27;;;3.47;;
81834;SDS011;71272;52.166;4.498;2024-02-16T03:05:21;8.00;;;3.38;;
81834;SDS011;71272;52.166;4.498;2024-02-16T03:07:47;6.82;;;3.45;;
81834;SDS011;71272;52.166;4.498;2024-02-16T03:10:12;8.07;;;3.70;;
81834;SDS011;71272;52.166;4.498;2024-02-16T03:12:39;5.80;;;3.67;;
81834;SDS011;71272;52.166;4.498;2024-02-16T03:15:05;9.87;;;4.43;;
81834;SDS011;71272;52.166;4.498;2024-02-16T03:17:30;6.25;;;3.88;;
81834;SDS011;71272;52.166;4.498;2024-02-16T03:19:55;6.43;;;3.80;;
81834;SDS011;71272;52.166;4.498;2024-02-16T03:22:20;8.97;;;3.63;;
81834;SDS011;71272;52.166;4.498;2024-02-16T03:24:46;6.67;;;3.93;;
81834;SDS011;71272;52.166;4.498;2024-02-16T03:27:11;12.32;;;4.07;;
81834;SDS011;71272;52.166;4.498;2024-02-16T03:29:37;9.27;;;4.07;;
81834;SDS011;71272;52.166;4.498;2024-02-16T03:32:02;5.70;;;3.30;;
81834;SDS011;71272;52.166;4.498;2024-02-16T03:34:27;9.30;;;3.83;;
81834;SDS011;71272;52.166;4.498;2024-02-16T03:36:52;8.07;;;4.33;;
81834;SDS011;71272;52.166;4.498;2024-02-16T03:39:18;5.77;;;3.47;;
81834;SDS011;71272;52.166;4.498;2024-02-16T03:41:45;8.55;;;3.85;;
81834;SDS011;71272;52.166;4.498;2024-02-16T03:44:13;7.18;;;3.42;;
81834;SDS011;71272;52.166;4.498;2024-02-16T03:46:38;7.90;;;3.53;;
81834;SDS011;71272;52.166;4.498;2024-02-16T03:49:04;7.83;;;3.63;;
81834;SDS011;71272;52.166;4.498;2024-02-16T03:51:29;6.60;;;3.40;;
81834;SDS011;71272;52.166;4.498;2024-02-16T03:53:54;7.05;;;3.67;;
81834;SDS011;71272;52.166;4.498;2024-02-16T03:56:19;7.43;;;3.27;;
81834;SDS011;71272;52.166;4.498;2024-02-16T03:58:45;7.45;;;3.42;;
81834;SDS011;71272;52.166;4.498;2024-02-16T04:01:11;6.23;;;3.43;;
81834;SDS011;71272;52.166;4.498;2024-02-16T04:03:36;6.47;;;3.67;;
81834;SDS011;71272;52.166;4.498;2024-02-16T04:06:01;9.47;;;3.60;;
81834;SDS011;71272;52.166;4.498;2024-02-16T04:08:29;6.88;;;3.60;;
81834;SDS011;71272;52.166;4.498;2024-02-16T04:10:54;7.47;;;3.37;;
81834;SDS011;71272;52.166;4.498;2024-02-16T04:13:19;6.33;;;3.37;;
81834;SDS011;71272;52.166;4.498;2024-02-16T04:15:44;6.27;;;3.30;;
81834;SDS011;71272;52.166;4.498;2024-02-16T04:18:10;6.20;;;3.33;;
81834;SDS011;71272;52.166;4.498;2024-02-16T04:20:35;6.03;;;3.03;;
81834;SDS011;71272;52.166;4.498;2024-02-16T04:23:01;6.32;;;3.60;;
81834;SDS011;71272;52.166;4.498;2024-02-16T04:25:26;8.20;;;3.80;;
81834;SDS011;71272;52.166;4.498;2024-02-16T04:27:51;9.87;;;4.03;;
81834;SDS011;71272;52.166;4.498;2024-02-16T04:30:16;11.93;;;3.40;;
81834;SDS011;71272;52.166;4.498;2024-02-16T04:32:42;10.60;;;4.10;;
81834;SDS011;71272;52.166;4.498;2024-02-16T04:35:07;11.33;;;4.17;;
81834;SDS011;71272;52.166;4.498;2024-02-16T04:37:36;9.65;;;3.40;;
81834;SDS011;71272;52.166;4.498;2024-02-16T04:40:01;9.87;;;3.50;;
81834;SDS011;71272;52.166;4.498;2024-02-16T04:42:27;5.90;;;3.03;;
81834;SDS011;71272;52.166;4.498;2024-02-16T04:44:52;8.10;;;3.10;;
81834;SDS011;71272;52.166;4.498;2024-02-16T04:47:17;7.83;;;3.87;;
81834;SDS011;71272;52.166;4.498;2024-02-16T04:49:43;6.07;;;3.17;;
81834;SDS011;71272;52.166;4.498;2024-02-16T04:52:08;7.22;;;3.10;;
81834;SDS011;71272;52.166;4.498;2024-02-16T04:54:33;9.07;;;3.57;;
81834;SDS011;71272;52.166;4.498;2024-02-16T04:56:59;7.23;;;3.27;;
81834;SDS011;71272;52.166;4.498;2024-02-16T04:59:24;8.13;;;3.63;;
81834;SDS011;71272;52.166;4.498;2024-02-16T05:01:49;8.53;;;3.70;;
81834;SDS011;71272;52.166;4.498;2024-02-16T05:04:14;8.13;;;3.90;;
81834;SDS011;71272;52.166;4.498;2024-02-16T05:06:42;8.73;;;3.67;;
81834;SDS011;71272;52.166;4.498;2024-02-16T05:09:07;6.72;;;3.35;;
81834;SDS011;71272;52.166;4.498;2024-02-16T05:11:33;10.65;;;4.03;;
81834;SDS011;71272;52.166;4.498;2024-02-16T05:13:58;8.02;;;4.35;;
81834;SDS011;71272;52.166;4.498;2024-02-16T05:16:23;7.93;;;4.13;;
81834;SDS011;71272;52.166;4.498;2024-02-16T05:18:49;8.00;;;3.93;;
81834;SDS011;71272;52.166;4.498;2024-02-16T05:21:14;7.43;;;3.63;;
81834;SDS011;71272;52.166;4.498;2024-02-16T05:23:39;8.50;;;4.07;;
81834;SDS011;71272;52.166;4.498;2024-02-16T05:26:04;7.73;;;4.23;;
81834;SDS011;71272;52.166;4.498;2024-02-16T05:28:29;9.90;;;4.80;;
81834;SDS011;71272;52.166;4.498;2024-02-16T05:30:55;8.90;;;3.50;;
81834;SDS011;71272;52.166;4.498;2024-02-16T05:33:20;10.38;;;4.15;;
81834;SDS011;71272;52.166;4.498;2024-02-16T05:35:45;11.50;;;4.33;;
81834;SDS011;71272;52.166;4.498;2024-02-16T05:38:16;6.68;;;3.35;;
81834;SDS011;71272;52.166;4.498;2024-02-16T05:40:57;11.80;;;3.53;;
81834;SDS011;71272;52.166;4.498;2024-02-16T05:43:22;9.57;;;3.40;;
81834;SDS011;71272;52.166;4.498;2024-02-16T05:45:48;6.57;;;3.60;;
81834;SDS011;71272;52.166;4.498;2024-02-16T05:48:13;10.70;;;4.10;;
81834;SDS011;71272;52.166;4.498;2024-02-16T05:50:39;7.90;;;4.23;;
81834;SDS011;71272;52.166;4.498;2024-02-16T05:53:04;8.13;;;4.13;;
81834;SDS011;71272;52.166;4.498;2024-02-16T05:55:29;6.63;;;3.53;;
81834;SDS011;71272;52.166;4.498;2024-02-16T05:57:54;7.33;;;3.93;;
81834;SDS011;71272;52.166;4.498;2024-02-16T06:00:20;9.37;;;4.17;;
81834;SDS011;71272;52.166;4.498;2024-02-16T06:02:46;9.43;;;4.50;;
81834;SDS011;71272;52.166;4.498;2024-02-16T06:05:12;8.63;;;3.85;;
81834;SDS011;71272;52.166;4.498;2024-02-16T06:07:37;9.85;;;4.47;;
81834;SDS011;71272;52.166;4.498;2024-02-16T06:10:03;13.02;;;3.95;;
81834;SDS011;71272;52.166;4.498;2024-02-16T06:12:30;7.57;;;3.97;;
81834;SDS011;71272;52.166;4.498;2024-02-16T06:14:56;8.23;;;3.80;;
81834;SDS011;71272;52.166;4.498;2024-02-16T06:17:22;8.48;;;4.68;;
81834;SDS011;71272;52.166;4.498;2024-02-16T06:19:47;8.27;;;4.50;;
81834;SDS011;71272;52.166;4.498;2024-02-16T06:22:13;10.20;;;5.28;;
81834;SDS011;71272;52.166;4.498;2024-02-16T06:24:38;8.07;;;4.43;;
81834;SDS011;71272;52.166;4.498;2024-02-16T06:27:03;7.87;;;4.33;;
81834;SDS011;71272;52.166;4.498;2024-02-16T06:29:29;10.43;;;3.70;;
81834;SDS011;71272;52.166;4.498;2024-02-16T06:31:55;9.80;;;5.20;;
81834;SDS011;71272;52.166;4.498;2024-02-16T06:34:20;10.70;;;3.73;;
81834;SDS011;71272;52.166;4.498;2024-02-16T06:36:45;8.03;;;4.27;;
81834;SDS011;71272;52.166;4.498;2024-02-16T06:39:11;10.30;;;4.73;;
81834;SDS011;71272;52.166;4.498;2024-02-16T06:41:36;8.45;;;3.95;;
81834;SDS011;71272;52.166;4.498;2024-02-16T06:44:02;9.50;;;4.03;;
81834;SDS011;71272;52.166;4.498;2024-02-16T06:46:28;7.47;;;4.10;;
81834;SDS011;71272;52.166;4.498;2024-02-16T06:48:54;9.20;;;4.25;;
81834;SDS011;71272;52.166;4.498;2024-02-16T06:51:21;7.30;;;4.45;;
81834;SDS011;71272;52.166;4.498;2024-02-16T06:53:47;8.50;;;5.00;;
81834;SDS011;71272;52.166;4.498;2024-02-16T06:56:12;8.30;;;3.83;;
81834;SDS011;71272;52.166;4.498;2024-02-16T06:58:37;8.70;;;4.47;;
81834;SDS011;71272;52.166;4.498;2024-02-16T07:01:03;9.67;;;4.07;;
81834;SDS011;71272;52.166;4.498;2024-02-16T07:03:28;9.52;;;3.88;;
81834;SDS011;71272;52.166;4.498;2024-02-16T07:05:54;10.77;;;4.03;;
81834;SDS011;71272;52.166;4.498;2024-02-16T07:08:19;10.25;;;4.70;;
81834;SDS011;71272;52.166;4.498;2024-02-16T07:10:45;10.43;;;4.47;;
81834;SDS011;71272;52.166;4.498;2024-02-16T07:13:12;8.82;;;3.53;;
81834;SDS011;71272;52.166;4.498;2024-02-16T07:15:37;10.27;;;4.43;;
81834;SDS011;71272;52.166;4.498;2024-02-16T07:18:02;10.70;;;4.40;;
81834;SDS011;71272;52.166;4.498;2024-02-16T07:20:29;10.23;;;4.25;;
81834;SDS011;71272;52.166;4.498;2024-02-16T07:22:54;9.07;;;3.90;;
81834;SDS011;71272;52.166;4.498;2024-02-16T07:25:19;7.10;;;4.00;;
81834;SDS011;71272;52.166;4.498;2024-02-16T07:27:44;9.90;;;4.63;;
81834;SDS011;71272;52.166;4.498;2024-02-16T07:30:09;7.17;;;3.67;;
81834;SDS011;71272;52.166;4.498;2024-02-16T07:32:38;9.98;;;4.60;;
81834;SDS011;71272;52.166;4.498;2024-02-16T07:35:03;7.80;;;4.20;;
81834;SDS011;71272;52.166;4.498;2024-02-16T07:37:29;8.63;;;3.97;;
81834;SDS011;71272;52.166;4.498;2024-02-16T07:39:55;9.68;;;4.45;;
81834;SDS011;71272;52.166;4.498;2024-02-16T07:42:20;10.33;;;4.70;;
81834;SDS011;71272;52.166;4.498;2024-02-16T07:44:45;10.20;;;4.70;;
81834;SDS011;71272;52.166;4.498;2024-02-16T07:47:11;8.13;;;4.93;;
81834;SDS011;71272;52.166;4.498;2024-02-16T07:49:37;9.23;;;4.63;;
81834;SDS011;71272;52.166;4.498;2024-02-16T07:52:03;11.23;;;4.65;;
81834;SDS011;71272;52.166;4.498;2024-02-16T07:54:28;7.43;;;4.23;;
81834;SDS011;71272;52.166;4.498;2024-02-16T07:56:54;9.23;;;4.22;;
81834;SDS011;71272;52.166;4.498;2024-02-16T07:59:19;9.43;;;4.43;;
81834;SDS011;71272;52.166;4.498;2024-02-16T08:01:44;8.23;;;4.40;;
81834;SDS011;71272;52.166;4.498;2024-02-16T08:04:10;7.87;;;4.20;;
81834;SDS011;71272;52.166;4.498;2024-02-16T08:06:35;11.00;;;4.67;;
81834;SDS011;71272;52.166;4.498;2024-02-16T08:09:00;8.32;;;3.90;;
81834;SDS011;71272;52.166;4.498;2024-02-16T08:11:26;9.70;;;4.90;;
81834;SDS011;71272;52.166;4.498;2024-02-16T08:13:52;8.13;;;4.07;;
81834;SDS011;71272;52.166;4.498;2024-02-16T08:16:17;11.53;;;4.63;;
81834;SDS011;71272;52.166;4.498;2024-02-16T08:18:43;11.93;;;4.50;;
81834;SDS011;71272;52.166;4.498;2024-02-16T08:21:08;11.75;;;4.55;;
81834;SDS011;71272;52.166;4.498;2024-02-16T08:23:38;11.10;;;4.35;;
81834;SDS011;71272;52.166;4.498;2024-02-16T08:26:03;9.90;;;4.18;;
81834;SDS011;71272;52.166;4.498;2024-02-16T08:28:28;9.47;;;4.90;;
81834;SDS011;71272;52.166;4.498;2024-02-16T08:30:54;7.73;;;4.50;;
81834;SDS011;71272;52.166;4.498;2024-02-16T08:33:19;7.10;;;4.20;;
81834;SDS011;71272;52.166;4.498;2024-02-16T08:35:44;9.35;;;4.10;;
81834;SDS011;71272;52.166;4.498;2024-02-16T08:38:09;11.60;;;4.70;;
81834;SDS011;71272;52.166;4.498;2024-02-16T08:40:36;9.18;;;4.05;;
81834;SDS011;71272;52.166;4.498;2024-02-16T08:43:01;12.15;;;4.50;;
81834;SDS011;71272;52.166;4.498;2024-02-16T08:45:28;8.23;;;4.30;;
81834;SDS011;71272;52.166;4.498;2024-02-16T08:47:53;9.57;;;4.40;;
81834;SDS011;71272;52.166;4.498;2024-02-16T08:50:19;9.30;;;4.72;;
81834;SDS011;71272;52.166;4.498;2024-02-16T08:52:44;10.23;;;4.67;;
81834;SDS011;71272;52.166;4.498;2024-02-16T08:55:09;8.80;;;4.80;;
81834;SDS011;71272;52.166;4.498;2024-02-16T08:57:35;13.33;;;4.83;;
81834;SDS011;71272;52.166;4.498;2024-02-16T09:00:00;12.27;;;5.90;;
81834;SDS011;71272;52.166;4.498;2024-02-16T09:02:25;12.20;;;4.50;;
81834;SDS011;71272;52.166;4.498;2024-02-16T09:04:50;9.53;;;5.37;;
81834;SDS011;71272;52.166;4.498;2024-02-16T09:07:15;10.07;;;5.57;;
81834;SDS011;71272;52.166;4.498;2024-02-16T09:09:41;17.13;;;7.23;;
81834;SDS011;71272;52.166;4.498;2024-02-16T09:12:06;23.70;;;7.87;;
81834;SDS011;71272;52.166;4.498;2024-02-16T09:14:31;18.17;;;7.40;;
81834;SDS011;71272;52.166;4.498;2024-02-16T09:16:57;16.90;;;7.25;;
81834;SDS011;71272;52.166;4.498;2024-02-16T09:19:22;20.17;;;8.37;;
81834;SDS011;71272;52.166;4.498;2024-02-16T09:21:48;21.57;;;8.90;;
81834;SDS011;71272;52.166;4.498;2024-02-16T09:24:14;22.13;;;8.10;;
81834;SDS011;71272;52.166;4.498;2024-02-16T09:26:43;29.33;;;10.10;;
81834;SDS011;71272;52.166;4.498;2024-02-16T09:29:10;23.60;;;9.95;;
81834;SDS011;71272;52.166;4.498;2024-02-16T09:31:36;28.27;;;9.13;;
81834;SDS011;71272;52.166;4.498;2024-02-16T09:34:01;25.23;;;9.77;;
81834;SDS011;71272;52.166;4.498;2024-02-16T09:36:27;31.80;;;10.60;;
81834;SDS011;71272;52.166;4.498;2024-02-16T09:38:52;36.70;;;10.70;;
81834;SDS011;71272;52.166;4.498;2024-02-16T09:41:18;29.08;;;9.45;;
81834;SDS011;71272;52.166;4.498;2024-02-16T09:43:43;25.60;;;9.93;;
81834;SDS011;71272;52.166;4.498;2024-02-16T09:46:08;31.53;;;9.40;;
81834;SDS011;71272;52.166;4.498;2024-02-16T09:48:34;23.10;;;8.33;;
81834;SDS011;71272;52.166;4.498;2024-02-16T09:50:59;28.45;;;9.73;;
81834;SDS011;71272;52.166;4.498;2024-02-16T09:53:25;27.63;;;8.98;;
81834;SDS011;71272;52.166;4.498;2024-02-16T09:55:51;32.22;;;9.32;;
81834;SDS011;71272;52.166;4.498;2024-02-16T09:58:17;31.60;;;10.30;;
81834;SDS011;71272;52.166;4.498;2024-02-16T10:00:53;23.58;;;9.30;;
81834;SDS011;71272;52.166;4.498;2024-02-16T10:03:28;20.30;;;7.88;;
81834;SDS011;71272;52.166;4.498;2024-02-16T10:08:31;19.52;;;6.78;;
81834;SDS011;71272;52.166;4.498;2024-02-16T10:11:03;23.23;;;6.90;;
81834;SDS011;71272;52.166;4.498;2024-02-16T10:13:28;18.60;;;6.22;;
81834;SDS011;71272;52.166;4.498;2024-02-16T10:16:03;15.40;;;7.70;;
81834;SDS011;71272;52.166;4.498;2024-02-16T10:18:28;17.00;;;6.85;;
81834;SDS011;71272;52.166;4.498;2024-02-16T10:20:54;18.67;;;7.50;;
81834;SDS011;71272;52.166;4.498;2024-02-16T10:23:19;17.33;;;7.40;;
81834;SDS011;71272;52.166;4.498;2024-02-16T10:25:44;14.47;;;7.30;;
81834;SDS011;71272;52.166;4.498;2024-02-16T10:28:10;19.00;;;7.63;;
81834;SDS011;71272;52.166;4.498;2024-02-16T10:30:39;21.23;;;9.68;;
81834;SDS011;71272;52.166;4.498;2024-02-16T10:33:07;24.95;;;8.32;;
81834;SDS011;71272;52.166;4.498;2024-02-16T10:35:34;24.00;;;8.45;;
81834;SDS011;71272;52.166;4.498;2024-02-16T10:40:26;24.88;;;9.60;;
81834;SDS011;71272;52.166;4.498;2024-02-16T10:42:52;22.73;;;9.57;;
81834;SDS011;71272;52.166;4.498;2024-02-16T10:45:17;17.90;;;8.10;;
81834;SDS011;71272;52.166;4.498;2024-02-16T10:47:44;17.98;;;7.32;;
81834;SDS011;71272;52.166;4.498;2024-02-16T10:50:09;21.27;;;8.77;;
81834;SDS011;71272;52.166;4.498;2024-02-16T10:52:35;16.30;;;8.25;;
81834;SDS011;71272;52.166;4.498;2024-02-16T10:55:02;14.65;;;7.18;;
81834;SDS011;71272;52.166;4.498;2024-02-16T10:57:29;16.73;;;7.22;;
81834;SDS011;71272;52.166;4.498;2024-02-16T10:59:54;17.95;;;7.07;;
81834;SDS011;71272;52.166;4.498;2024-02-16T11:02:20;14.57;;;7.15;;
81834;SDS011;71272;52.166;4.498;2024-02-16T11:04:46;23.17;;;7.57;;
81834;SDS011;71272;52.166;4.498;2024-02-16T11:07:15;17.98;;;6.95;;
81834;SDS011;71272;52.166;4.498;2024-02-16T11:09:41;15.20;;;7.45;;
81834;SDS011;71272;52.166;4.498;2024-02-16T11:12:06;20.33;;;7.50;;
81834;SDS011;71272;52.166;4.498;2024-02-16T11:17:07;13.23;;;5.90;;
81834;SDS011;71272;52.166;4.498;2024-02-16T11:19:34;11.52;;;5.43;;
81834;SDS011;71272;52.166;4.498;2024-02-16T11:22:03;15.57;;;5.60;;
81834;SDS011;71272;52.166;4.498;2024-02-16T11:24:32;16.83;;;5.80;;
81834;SDS011;71272;52.166;4.498;2024-02-16T11:26:57;14.27;;;5.88;;
81834;SDS011;71272;52.166;4.498;2024-02-16T11:29:23;15.35;;;5.82;;
81834;SDS011;71272;52.166;4.498;2024-02-16T11:31:50;9.43;;;5.03;;
81834;SDS011;71272;52.166;4.498;2024-02-16T11:34:22;17.43;;;5.37;;
81834;SDS011;71272;52.166;4.498;2024-02-16T11:36:47;12.48;;;4.53;;
81834;SDS011;71272;52.166;4.498;2024-02-16T11:39:13;10.53;;;5.63;;
81834;SDS011;71272;52.166;4.498;2024-02-16T11:41:41;16.67;;;5.07;;
81834;SDS011;71272;52.166;4.498;2024-02-16T11:44:06;18.10;;;5.77;;
81834;SDS011;71272;52.166;4.498;2024-02-16T11:46:31;12.80;;;5.10;;
81834;SDS011;71272;52.166;4.498;2024-02-16T11:49:04;10.87;;;4.83;;
81834;SDS011;71272;52.166;4.498;2024-02-16T11:51:29;14.98;;;5.07;;
81834;SDS011;71272;52.166;4.498;2024-02-16T11:53:55;11.37;;;4.63;;
81834;SDS011;71272;52.166;4.498;2024-02-16T11:56:23;14.88;;;6.15;;
81834;SDS011;71272;52.166;4.498;2024-02-16T11:58:49;20.08;;;5.38;;
81834;SDS011;71272;52.166;4.498;2024-02-16T12:01:14;9.67;;;5.30;;
81834;SDS011;71272;52.166;4.498;2024-02-16T12:03:40;14.57;;;5.33;;
81834;SDS011;71272;52.166;4.498;2024-02-16T12:06:06;11.55;;;4.78;;
81834;SDS011;71272;52.166;4.498;2024-02-16T12:08:32;15.97;;;6.07;;
81834;SDS011;71272;52.166;4.498;2024-02-16T12:10:57;16.00;;;6.20;;
81834;SDS011;71272;52.166;4.498;2024-02-16T12:13:22;11.27;;;4.73;;
81834;SDS011;71272;52.166;4.498;2024-02-16T12:15:48;14.33;;;5.53;;
81834;SDS011;71272;52.166;4.498;2024-02-16T12:20:45;16.25;;;5.85;;
81834;SDS011;71272;52.166;4.498;2024-02-16T12:23:13;11.40;;;5.85;;
81834;SDS011;71272;52.166;4.498;2024-02-16T12:25:38;19.00;;;6.35;;
81834;SDS011;71272;52.166;4.498;2024-02-16T12:28:04;13.40;;;5.20;;
81834;SDS011;71272;52.166;4.498;2024-02-16T12:30:30;9.10;;;5.18;;
81834;SDS011;71272;52.166;4.498;2024-02-16T12:32:55;14.73;;;5.30;;
81834;SDS011;71272;52.166;4.498;2024-02-16T12:35:20;15.53;;;5.33;;
81834;SDS011;71272;52.166;4.498;2024-02-16T12:37:46;15.97;;;5.53;;
81834;SDS011;71272;52.166;4.498;2024-02-16T12:40:11;16.63;;;6.00;;
81834;SDS011;71272;52.166;4.498;2024-02-16T12:42:36;9.87;;;5.40;;
81834;SDS011;71272;52.166;4.498;2024-02-16T12:45:03;16.42;;;5.90;;
81834;SDS011;71272;52.166;4.498;2024-02-16T12:47:28;14.90;;;6.33;;
81834;SDS011;71272;52.166;4.498;2024-02-16T12:49:53;12.97;;;5.53;;
81834;SDS011;71272;52.166;4.498;2024-02-16T12:52:20;13.57;;;6.55;;
81834;SDS011;71272;52.166;4.498;2024-02-16T12:54:48;20.13;;;7.63;;
81834;SDS011;71272;52.166;4.498;2024-02-16T12:57:14;18.53;;;6.37;;
81834;SDS011;71272;52.166;4.498;2024-02-16T12:59:39;13.18;;;5.10;;
81834;SDS011;71272;52.166;4.498;2024-02-16T13:02:04;13.27;;;5.83;;
81834;SDS011;71272;52.166;4.498;2024-02-16T13:04:30;11.43;;;5.35;;
81834;SDS011;71272;52.166;4.498;2024-02-16T13:06:57;13.00;;;6.05;;
81834;SDS011;71272;52.166;4.498;2024-02-16T13:09:22;15.17;;;5.67;;
81834;SDS011;71272;52.166;4.498;2024-02-16T13:11:47;11.33;;;5.00;;
81834;SDS011;71272;52.166;4.498;2024-02-16T13:14:19;11.13;;;5.28;;
81834;SDS011;71272;52.166;4.498;2024-02-16T13:16:44;11.07;;;6.20;;
81834;SDS011;71272;52.166;4.498;2024-02-16T13:19:09;14.27;;;5.73;;
81834;SDS011;71272;52.166;4.498;2024-02-16T13:21:34;14.20;;;5.83;;
81834;SDS011;71272;52.166;4.498;2024-02-16T13:23:59;14.83;;;6.60;;
81834;SDS011;71272;52.166;4.498;2024-02-16T13:26:25;11.73;;;5.87;;
81834;SDS011;71272;52.166;4.498;2024-02-16T13:28:50;13.27;;;5.93;;
81834;SDS011;71272;52.166;4.498;2024-02-16T13:31:15;15.55;;;5.53;;
81834;SDS011;71272;52.166;4.498;2024-02-16T13:33:40;11.53;;;6.17;;
81834;SDS011;71272;52.166;4.498;2024-02-16T13:36:06;17.20;;;6.20;;
81834;SDS011;71272;52.166;4.498;2024-02-16T13:38:31;10.43;;;6.00;;
81834;SDS011;71272;52.166;4.498;2024-02-16T13:40:56;16.27;;;5.60;;
81834;SDS011;71272;52.166;4.498;2024-02-16T13:43:21;11.00;;;4.63;;
81834;SDS011;71272;52.166;4.498;2024-02-16T13:45:50;12.57;;;5.13;;
81834;SDS011;71272;52.166;4.498;2024-02-16T13:48:16;10.48;;;4.95;;
81834;SDS011;71272;52.166;4.498;2024-02-16T13:50:43;10.60;;;5.20;;
81834;SDS011;71272;52.166;4.498;2024-02-16T13:53:08;10.23;;;4.70;;
81834;SDS011;71272;52.166;4.498;2024-02-16T13:55:33;10.87;;;5.20;;
81834;SDS011;71272;52.166;4.498;2024-02-16T13:57:58;10.63;;;4.57;;
81834;SDS011;71272;52.166;4.498;2024-02-16T14:00:23;15.03;;;5.80;;
81834;SDS011;71272;52.166;4.498;2024-02-16T14:02:49;14.60;;;5.70;;
81834;SDS011;71272;52.166;4.498;2024-02-16T14:05:14;13.20;;;5.32;;
81834;SDS011;71272;52.166;4.498;2024-02-16T14:07:39;11.03;;;5.90;;
81834;SDS011;71272;52.166;4.498;2024-02-16T14:10:05;13.20;;;5.13;;
81834;SDS011;71272;52.166;4.498;2024-02-16T14:12:30;10.32;;;5.00;;
81834;SDS011;71272;52.166;4.498;2024-02-16T14:14:55;13.87;;;5.93;;
81834;SDS011;71272;52.166;4.498;2024-02-16T14:17:20;11.13;;;4.37;;
81834;SDS011;71272;52.166;4.498;2024-02-16T14:19:45;7.77;;;4.50;;
81834;SDS011;71272;52.166;4.498;2024-02-16T14:22:11;11.07;;;4.80;;
81834;SDS011;71272;52.166;4.498;2024-02-16T14:24:37;11.93;;;4.43;;
81834;SDS011;71272;52.166;4.498;2024-02-16T14:27:02;10.10;;;5.03;;
81834;SDS011;71272;52.166;4.498;2024-02-16T14:29:29;9.48;;;4.70;;
81834;SDS011;71272;52.166;4.498;2024-02-16T14:31:54;15.83;;;5.70;;
81834;SDS011;71272;52.166;4.498;2024-02-16T14:34:19;11.40;;;4.93;;
81834;SDS011;71272;52.166;4.498;2024-02-16T14:36:45;10.27;;;4.87;;
81834;SDS011;71272;52.166;4.498;2024-02-16T14:39:10;15.13;;;5.88;;
81834;SDS011;71272;52.166;4.498;2024-02-16T14:41:36;13.68;;;5.10;;